Time;durP1;ratioP1;P1;durP2;ratioP2;P2;SDS_P1;SDS_P2;PMS_P1;PMS_P2;Temp;Humidity;BMP_temperature;BMP_pressure;BME280_temperature;BME280_humidity;BME280_pressure;Samples;Min_cycle;Max_cycle;Signal;HPM_P1;HPM_P2
2021/12/15 00:01:29;;;;;;;38.53;15.18;;;;;;;4.10;100.00;99912.59;12819541;23;20013;-80
2021/12/15 00:06:32;;;;;;;45.88;15.93;;;;;;;3.97;100.00;99903.09;12824881;23;20131;-79
2021/12/15 00:11:37;;;;;;;34.53;14.93;;;;;;;4.02;100.00;99900.50;12848169;23;20005;-80
2021/12/15 00:16:44;;;;;;;32.47;14.85;;;;;;;3.97;100.00;99890.59;12833339;23;20021;-81
2021/12/15 00:21:50;;;;;;;38.45;14.70;;;;;;;3.96;100.00;99891.66;12785108;23;20017;-81
2021/12/15 00:26:56;;;;;;;33.30;14.55;;;;;;;4.00;100.00;99897.28;12804309;23;20043;-79
2021/12/15 00:31:58;;;;;;;37.22;14.18;;;;;;;4.13;100.00;99898.84;12725819;23;20120;-80
2021/12/15 00:37:03;;;;;;;38.78;14.80;;;;;;;3.96;100.00;99889.00;12780123;23;20050;-79
2021/12/15 00:42:10;;;;;;;36.47;12.90;;;;;;;3.97;100.00;99887.94;12834756;23;20024;-80
2021/12/15 00:47:11;;;;;;;41.55;14.35;;;;;;;3.85;100.00;99891.72;12779293;23;20268;-79
2021/12/15 00:52:17;;;;;;;33.70;14.27;;;;;;;3.76;100.00;99880.69;12821437;23;20063;-82
2021/12/15 00:57:20;;;;;;;42.38;14.13;;;;;;;3.84;100.00;99885.59;12826627;23;20013;-81
2021/12/15 01:02:21;;;;;;;42.87;14.93;;;;;;;3.86;100.00;99880.06;12812331;23;20024;-80
2021/12/15 01:07:25;;;;;;;42.38;15.40;;;;;;;3.79;100.00;99890.00;12798956;23;20507;-81
2021/12/15 01:23:33;;;;;;;41.55;15.50;;;;;;;3.75;100.00;99888.84;12571605;23;19991;-78
2021/12/15 01:28:35;;;;;;;;;;;;;;;3.72;100.00;99890.94;12814267;23;20021;-80
2021/12/15 01:33:40;;;;;;;42.75;15.63;;;;;;;3.80;100.00;99899.59;12791071;23;19916;-81
2021/12/15 01:38:49;;;;;;;51.42;17.63;;;;;;;3.83;100.00;99893.78;12753189;23;20368;-82
2021/12/15 01:49:49;;;;;;;53.70;18.25;;;;;;;3.84;100.00;99913.97;12776909;23;20036;-81
2021/12/15 01:55:33;;;;;;;47.78;16.48;;;;;;;3.89;100.00;99906.94;12781184;23;20021;-83
2021/12/15 02:01:02;;;;;;;49.40;17.40;;;;;;;3.97;100.00;99909.19;12797364;23;20025;-83
2021/12/15 02:06:10;;;;;;;60.20;18.45;;;;;;;3.95;100.00;99907.84;12792700;23;20013;-79
2021/12/15 02:11:13;;;;;;;57.10;19.63;;;;;;;4.13;100.00;99907.63;12815398;23;20093;-82
2021/12/15 02:16:21;;;;;;;58.50;17.60;;;;;;;4.00;100.00;99894.63;12758646;23;20031;-81
2021/12/15 02:21:26;;;;;;;61.60;18.90;;;;;;;3.99;100.00;99896.47;12771354;23;20064;-79
2021/12/15 02:26:31;;;;;;;;;;;;;;;4.00;100.00;99905.25;12801391;23;20290;-79
2021/12/15 02:31:41;;;;;;;77.30;22.77;;;;;;;3.90;100.00;99897.91;12750525;23;19927;-79
2021/12/15 02:42:08;;;;;;;83.47;21.92;;;;;;;4.02;100.00;99900.50;12808940;23;20038;-80
2021/12/15 02:47:19;;;;;;;69.32;21.00;;;;;;;4.09;100.00;99903.81;12760506;23;20047;-83
2021/12/15 02:52:20;;;;;;;95.35;22.95;;;;;;;3.97;100.00;99901.22;12752975;23;20068;-79
2021/12/15 02:57:21;;;;;;;60.90;19.58;;;;;;;4.06;100.00;99909.63;12800048;23;20036;-79
2021/12/15 03:08:04;;;;;;;80.60;21.67;;;;;;;4.18;100.00;99910.34;12829121;23;20017;-82
2021/12/15 03:18:30;;;;;;;92.35;25.77;;;;;;;4.18;100.00;99914.84;12807059;23;20023;-80
2021/12/15 03:24:08;;;;;;;87.32;23.25;;;;;;;4.18;100.00;99920.97;12803096;23;20456;-79
2021/12/15 03:34:43;;;;;;;98.30;23.67;;;;;;;4.10;100.00;99920.56;12808781;23;20009;-79
2021/12/15 03:39:58;;;;;;;75.60;21.98;;;;;;;4.16;100.00;99920.41;12850644;23;20001;-79
2021/12/15 03:45:02;;;;;;;87.70;24.77;;;;;;;4.21;100.00;99922.38;12796633;23;20436;-78
2021/12/15 03:50:08;;;;;;;122.25;27.08;;;;;;;4.16;100.00;99931.03;12810918;23;20033;-85
2021/12/15 03:55:24;;;;;;;125.28;26.85;;;;;;;4.15;100.00;99924.13;12802611;23;20013;-83
2021/12/15 04:00:39;;;;;;;96.90;23.75;;;;;;;4.13;100.00;99920.09;12780526;23;20029;-80
2021/12/15 04:05:51;;;;;;;84.88;21.73;;;;;;;4.12;100.00;99926.47;12806957;23;20021;-80
2021/12/15 04:11:02;;;;;;;101.93;22.83;;;;;;;4.20;100.00;99932.16;12849331;23;20013;-82
2021/12/15 04:16:07;;;;;;;74.78;19.70;;;;;;;4.17;100.00;99932.66;12825975;23;20008;-79
2021/12/15 04:21:29;;;;;;;68.00;19.95;;;;;;;4.21;100.00;99933.78;12823286;23;20089;-79
2021/12/15 04:26:30;;;;;;;73.88;19.13;;;;;;;4.18;100.00;99941.41;12806449;23;20013;-82
2021/12/15 04:31:37;;;;;;;95.03;22.10;;;;;;;4.05;100.00;99939.09;12764397;23;20033;-81
2021/12/15 04:36:46;;;;;;;81.00;20.63;;;;;;;4.14;100.00;99946.41;12810671;23;20027;-79
2021/12/15 04:41:50;;;;;;;73.55;19.92;;;;;;;4.19;100.00;99957.13;12845717;23;20052;-81
2021/12/15 04:47:03;;;;;;;90.65;21.88;;;;;;;4.15;100.00;99957.84;12843997;23;20021;-79
2021/12/15 04:52:05;;;;;;;97.88;22.83;;;;;;;4.07;100.00;99964.34;12773723;23;20013;-80
2021/12/15 04:57:11;;;;;;;81.73;20.87;;;;;;;4.12;100.00;99964.47;12773976;23;20135;-80
2021/12/15 05:02:16;;;;;;;84.40;21.13;;;;;;;4.08;100.00;99978.44;12778950;23;20021;-79
2021/12/15 05:07:19;;;;;;;82.68;19.33;;;;;;;4.21;100.00;99984.28;12796850;23;20500;-78
2021/12/15 05:12:21;;;;;;;85.70;21.30;;;;;;;4.09;100.00;99999.47;12747029;23;20017;-78
2021/12/15 05:17:22;;;;;;;67.15;19.60;;;;;;;4.16;100.00;99989.50;12810863;23;20017;-78
2021/12/15 05:22:24;;;;;;;102.30;22.20;;;;;;;4.15;100.00;99995.84;12815084;23;20044;-83
2021/12/15 05:27:29;;;;;;;98.88;21.40;;;;;;;4.09;100.00;100001.31;12801470;23;20053;-82
2021/12/15 05:32:43;;;;;;;84.35;22.42;;;;;;;4.11;100.00;100013.31;12750163;23;20017;-83
2021/12/15 05:37:58;;;;;;;95.60;22.70;;;;;;;4.15;100.00;100014.47;12744671;23;20343;-81
2021/12/15 05:43:28;;;;;;;87.47;20.45;;;;;;;4.23;100.00;100010.63;12747802;23;20032;-80
2021/12/15 05:48:33;;;;;;;91.68;23.50;;;;;;;4.21;100.00;100018.84;12752675;23;20029;-81
2021/12/15 05:53:43;;;;;;;89.43;23.45;;;;;;;4.20;100.00;100021.72;12731764;23;20030;-86
2021/12/15 05:58:48;;;;;;;92.20;22.40;;;;;;;4.17;100.00;100030.16;12767021;23;20010;-82
2021/12/15 06:03:51;;;;;;;77.32;22.35;;;;;;;4.13;100.00;100032.50;12752642;23;20203;-80
2021/12/15 06:08:52;;;;;;;103.97;22.30;;;;;;;4.14;100.00;100036.75;12750741;23;20041;-80
2021/12/15 06:13:53;;;;;;;89.85;22.98;;;;;;;4.08;100.00;100034.25;12795987;23;20025;-79
2021/12/15 06:18:57;;;;;;;87.07;22.90;;;;;;;4.13;100.00;100032.50;12845008;23;20005;-81
2021/12/15 06:24:02;;;;;;;84.05;21.00;;;;;;;4.21;100.00;100047.25;12803235;23;20007;-80
2021/12/15 06:29:03;;;;;;;78.85;22.95;;;;;;;4.12;100.00;100046.03;12727897;23;20131;-80
2021/12/15 06:34:10;;;;;;;93.80;23.27;;;;;;;4.28;100.00;100050.56;12736304;23;20077;-80
2021/12/15 06:39:14;;;;;;;80.25;19.20;;;;;;;4.25;100.00;100043.88;12763929;23;20085;-81
2021/12/15 06:44:20;;;;;;;88.30;19.52;;;;;;;4.24;100.00;100052.91;12748511;23;20047;-79
2021/12/15 07:00:24;;;;;;;68.65;18.85;;;;;;;4.22;100.00;100064.81;12784133;23;20002;-79
2021/12/15 07:05:52;;;;;;;64.40;18.95;;;;;;;4.20;100.00;100065.03;12783528;23;20029;-80
2021/12/15 07:11:01;;;;;;;74.07;19.80;;;;;;;4.23;100.00;100075.22;12782257;23;20088;-79
2021/12/15 07:16:10;;;;;;;57.85;16.90;;;;;;;4.20;100.00;100075.66;12749059;23;20026;-81
2021/12/15 07:21:20;;;;;;;69.63;18.15;;;;;;;4.26;100.00;100073.91;12715896;23;20025;-80
2021/12/15 07:26:39;;;;;;;75.38;20.17;;;;;;;4.36;100.00;100087.41;12723877;23;20025;-81
2021/12/15 07:31:41;;;;;;;75.22;20.67;;;;;;;4.36;100.00;100089.25;12704433;23;20556;-79
2021/12/15 07:36:42;;;;;;;58.90;17.77;;;;;;;4.32;100.00;100088.13;12753911;23;20077;-81
2021/12/15 07:42:03;;;;;;;75.50;20.10;;;;;;;4.34;100.00;100101.97;12727315;23;20025;-79
2021/12/15 07:47:06;;;;;;;74.50;20.63;;;;;;;4.43;100.00;100111.19;12711885;23;20022;-82
2021/12/15 07:52:12;;;;;;;82.70;20.75;;;;;;;4.50;100.00;100114.50;12743472;23;20301;-81
2021/12/15 07:57:18;;;;;;;78.97;23.33;;;;;;;4.53;100.00;100119.34;12732404;23;20100;-79
2021/12/15 08:02:20;;;;;;;91.57;24.38;;;;;;;4.67;100.00;100122.53;12703609;23;20337;-81
2021/12/15 08:07:28;;;;;;;83.80;23.38;;;;;;;4.57;100.00;100123.13;12702628;23;20088;-80
2021/12/15 08:12:30;;;;;;;83.90;24.63;;;;;;;4.64;100.00;100121.16;12688848;23;20033;-80
2021/12/15 08:17:36;;;;;;;85.17;23.00;;;;;;;4.65;100.00;100133.38;12733033;23;20093;-82
2021/12/15 08:22:44;;;;;;;77.05;22.63;;;;;;;4.71;100.00;100132.44;12726309;23;20056;-80
2021/12/15 08:27:49;;;;;;;67.72;22.48;;;;;;;4.85;100.00;100138.28;12708908;23;20057;-84
2021/12/15 08:33:00;;;;;;;60.50;20.00;;;;;;;4.73;100.00;100138.34;12738318;23;20014;-82
2021/12/15 08:38:06;;;;;;;70.80;21.48;;;;;;;4.94;100.00;100139.53;12707629;23;20089;-81
2021/12/15 08:43:13;;;;;;;75.18;21.08;;;;;;;4.92;100.00;100133.59;12766582;23;20001;-82
2021/12/15 08:48:16;;;;;;;55.58;21.95;;;;;;;5.06;100.00;100139.44;12759479;23;20065;-80
2021/12/15 08:53:23;;;;;;;63.93;21.37;;;;;;;5.13;100.00;100140.09;12731904;23;20009;-80
2021/12/15 08:58:37;;;;;;;60.38;19.85;;;;;;;5.27;100.00;100141.38;12741887;23;20322;-80
2021/12/15 09:03:41;;;;;;;49.60;18.33;;;;;;;5.26;100.00;100142.44;12767138;23;20042;-82
2021/12/15 09:08:45;;;;;;;56.05;18.17;;;;;;;5.32;100.00;100146.78;12718523;23;20111;-82
2021/12/15 09:13:53;;;;;;;56.10;18.77;;;;;;;5.38;100.00;100139.69;12734464;23;20021;-81
2021/12/15 09:19:00;;;;;;;54.67;17.77;;;;;;;5.47;100.00;100140.06;12705338;23;20025;-80
2021/12/15 09:24:07;;;;;;;51.85;18.08;;;;;;;5.26;100.00;100137.09;12706979;23;20131;-81
2021/12/15 09:29:10;;;;;;;57.00;19.30;;;;;;;5.47;100.00;100145.41;12741779;23;20203;-80
2021/12/15 09:34:17;;;;;;;55.03;19.20;;;;;;;5.62;100.00;100146.44;12741406;23;20024;-81
2021/12/15 09:39:21;;;;;;;53.88;19.35;;;;;;;5.48;100.00;100139.81;12741087;23;20027;-82
2021/12/15 09:44:26;;;;;;;57.22;19.23;;;;;;;5.47;100.00;100137.41;12752310;23;20068;-81
2021/12/15 10:05:51;;;;;;;52.35;19.98;;;;;;;5.68;100.00;100120.69;12718672;23;20037;-84
2021/12/15 10:11:13;;;;;;;49.72;20.17;;;;;;;5.87;100.00;100116.69;12723466;23;20163;-81
2021/12/15 10:22:43;;;;;;;58.50;20.67;;;;;;;5.71;100.00;100105.03;12742252;23;20041;-83
2021/12/15 10:27:44;;;;;;;55.90;21.55;;;;;;;5.77;100.00;100111.25;12737749;23;20032;-84
2021/12/15 10:32:54;;;;;;;57.58;21.80;;;;;;;5.75;100.00;100099.19;12762369;23;20012;-81
2021/12/15 10:38:29;;;;;;;51.15;21.85;;;;;;;5.85;100.00;100096.66;12760815;23;20017;-80
2021/12/15 10:44:02;;;;;;;53.50;20.80;;;;;;;5.92;100.00;100087.47;12715125;23;20009;-81
2021/12/15 10:49:34;;;;;;;49.78;21.50;;;;;;;5.90;100.00;100092.25;12727847;23;20057;-80
2021/12/15 10:54:59;;;;;;;54.63;22.55;;;;;;;6.13;100.00;100093.88;12726302;23;20033;-84
2021/12/15 11:00:11;;;;;;;57.47;22.33;;;;;;;6.34;100.00;100086.09;12743134;23;20041;-81
2021/12/15 11:05:21;;;;;;;48.10;20.60;;;;;;;6.59;100.00;100075.69;12727993;23;20033;-81
2021/12/15 11:10:40;;;;;;;48.28;19.17;;;;;;;6.64;100.00;100069.59;12710119;23;20010;-84
2021/12/15 11:15:54;;;;;;;40.45;17.73;;;;;;;6.42;100.00;100070.44;12783433;23;20029;-82
2021/12/15 11:21:15;;;;;;;48.22;20.45;;;;;;;6.19;100.00;100074.19;12783100;23;20017;-82
2021/12/15 11:26:19;;;;;;;44.78;18.48;;;;;;;6.19;100.00;100066.19;12733989;23;20017;-82
2021/12/15 11:31:24;;;;;;;42.25;18.35;;;;;;;6.50;100.00;100062.00;12725476;23;20032;-82
2021/12/15 11:36:35;;;;;;;37.50;17.55;;;;;;;6.55;100.00;100053.22;12703694;23;20021;-80
2021/12/15 11:41:43;;;;;;;38.55;18.55;;;;;;;6.52;100.00;100056.41;12724386;23;20081;-82
2021/12/15 11:46:51;;;;;;;38.67;17.75;;;;;;;6.46;100.00;100050.22;12721842;23;20053;-80
2021/12/15 11:52:07;;;;;;;36.47;16.45;;;;;;;6.32;100.00;100048.22;12719919;23;20037;-79
2021/12/15 11:57:25;;;;;;;38.97;16.02;;;;;;;6.29;100.00;100049.50;12720743;23;20132;-80
2021/12/15 12:02:33;;;;;;;34.17;15.43;;;;;;;6.42;100.00;100048.31;12751185;23;20111;-80
2021/12/15 12:08:03;;;;;;;35.88;16.85;;;;;;;6.45;100.00;100055.81;12772181;23;20001;-82
2021/12/15 12:13:16;;;;;;;36.00;17.13;;;;;;;6.35;100.00;100056.50;12744348;23;20029;-83
2021/12/15 12:18:41;;;;;;;40.22;16.60;;;;;;;6.32;100.00;100054.34;12766674;23;20037;-83
2021/12/15 12:23:45;;;;;;;33.15;15.55;;;;;;;6.38;100.00;100048.00;12762930;23;20061;-84
2021/12/15 12:28:47;;;;;;;33.67;17.15;;;;;;;6.41;100.00;100055.50;12775489;23;20017;-82
2021/12/15 12:33:50;;;;;;;29.50;14.95;;;;;;;6.51;100.00;100049.47;12742289;23;20033;-82
2021/12/15 12:39:08;;;;;;;34.28;16.40;;;;;;;6.43;100.00;100058.72;12731550;23;20029;-82
2021/12/15 12:44:16;;;;;;;30.48;15.65;;;;;;;6.46;100.00;100057.41;12749314;23;20032;-83
2021/12/15 13:00:37;;;;;;;29.83;14.82;;;;;;;6.33;100.00;100050.63;12761395;23;20092;-83
2021/12/15 13:06:13;;;;;;;29.35;15.15;;;;;;;6.38;100.00;100045.31;12735862;23;20049;-82
2021/12/15 13:11:21;;;;;;;30.58;14.10;;;;;;;6.42;100.00;100042.97;12733703;23;20303;-82
2021/12/15 13:16:37;;;;;;;29.85;14.82;;;;;;;6.46;100.00;100046.75;12738615;23;20005;-83
2021/12/15 13:22:30;;;;;;;30.77;13.65;;;;;;;6.57;100.00;100032.44;12776721;23;20030;-83
2021/12/15 13:33:36;;;;;;;34.53;14.93;;;;;;;6.49;100.00;100028.38;12775632;23;20048;-82
2021/12/15 13:38:58;;;;;;;29.10;12.93;;;;;;;6.52;100.00;100043.06;12760787;23;20013;-82
2021/12/15 13:44:35;;;;;;;33.08;14.85;;;;;;;6.45;100.00;100031.78;12783282;23;20030;-81
2021/12/15 13:49:40;;;;;;;31.38;15.48;;;;;;;6.51;100.00;100025.47;12764877;23;20025;-82
2021/12/15 13:54:53;;;;;;;27.55;14.35;;;;;;;6.28;100.00;100026.56;12758292;23;20037;-82
2021/12/15 14:00:36;;;;;;;30.63;14.07;;;;;;;6.30;100.00;100027.09;12788066;23;20006;-82
2021/12/15 14:05:53;;;;;;;29.75;14.68;;;;;;;6.23;100.00;100027.31;12789360;23;20029;-80
2021/12/15 14:11:08;;;;;;;31.50;14.90;;;;;;;6.38;100.00;100036.53;12770586;23;20036;-82
2021/12/15 14:16:27;;;;;;;36.28;18.17;;;;;;;6.21;100.00;100029.41;12746766;23;20014;-83
2021/12/15 14:21:31;;;;;;;35.10;17.92;;;;;;;6.23;100.00;100042.53;12770947;23;20040;-83
2021/12/15 14:26:47;;;;;;;57.22;29.17;;;;;;;6.19;100.00;100054.72;12779376;23;20001;-83
2021/12/15 14:32:09;;;;;;;45.05;18.10;;;;;;;6.11;100.00;100057.81;12785538;23;20049;-84
2021/12/15 14:37:17;;;;;;;46.05;20.63;;;;;;;6.08;100.00;100051.16;12783513;23;20037;-81
2021/12/15 14:42:27;;;;;;;43.58;19.25;;;;;;;6.06;100.00;100063.91;12769678;23;20026;-82
2021/12/15 14:47:32;;;;;;;43.67;19.90;;;;;;;6.08;100.00;100061.81;12719910;23;20029;-84
2021/12/15 14:52:43;;;;;;;52.75;23.30;;;;;;;6.09;100.00;100067.94;12757088;23;20025;-80
2021/12/15 14:57:48;;;;;;;47.95;21.30;;;;;;;5.96;100.00;100072.59;12702847;23;20018;-81
2021/12/15 15:02:59;;;;;;;42.33;20.17;;;;;;;5.92;100.00;100062.69;12703081;23;20028;-83
2021/12/15 15:08:12;;;;;;;43.15;20.15;;;;;;;5.91;100.00;100067.19;12760212;23;20032;-81
2021/12/15 15:13:20;;;;;;;40.28;19.65;;;;;;;5.88;100.00;100065.00;12742449;23;20104;-80
2021/12/15 15:18:30;;;;;;;38.97;18.35;;;;;;;5.87;100.00;100062.59;12715916;23;20036;-81
2021/12/15 15:23:42;;;;;;;41.42;18.50;;;;;;;5.85;100.00;100054.84;12748456;23;20017;-80
2021/12/15 15:28:50;;;;;;;48.67;21.27;;;;;;;5.71;100.00;100059.72;12721592;23;20029;-80
2021/12/15 15:33:51;;;;;;;35.47;19.35;;;;;;;5.65;100.00;100059.91;12719953;23;20045;-81
2021/12/15 15:38:57;;;;;;;35.03;17.20;;;;;;;5.68;100.00;100068.22;12714840;23;20078;-82
2021/12/15 15:44:14;;;;;;;41.13;18.65;;;;;;;5.70;100.00;100066.13;12719987;23;20097;-80
2021/12/15 15:49:31;;;;;;;37.33;18.80;;;;;;;5.64;100.00;100079.59;12752770;23;20021;-82
2021/12/15 15:54:41;;;;;;;38.47;17.85;;;;;;;5.61;100.00;100070.25;12759168;23;20096;-83
2021/12/15 16:00:00;;;;;;;35.70;16.33;;;;;;;5.62;100.00;100082.53;12743195;23;20025;-84
2021/12/15 16:05:12;;;;;;;34.97;15.90;;;;;;;5.61;100.00;100088.09;12757595;23;20017;-83
2021/12/15 16:10:43;;;;;;;31.05;15.45;;;;;;;5.60;100.00;100094.47;12769298;23;20069;-81
2021/12/15 16:16:18;;;;;;;31.75;16.15;;;;;;;5.58;100.00;100088.59;12774854;23;20032;-85
2021/12/15 16:28:14;;;;;;;26.33;13.60;;;;;;;5.50;100.00;100092.47;12854113;23;20023;-81
2021/12/15 16:33:55;;;;;;;29.00;13.90;;;;;;;5.52;100.00;100092.22;12854308;23;20001;-84
2021/12/15 16:39:19;;;;;;;30.77;14.82;;;;;;;5.53;100.00;100094.66;12754520;23;20021;-84
2021/12/15 16:44:27;;;;;;;36.22;18.13;;;;;;;5.41;100.00;100108.06;12774913;23;20017;-82
2021/12/15 16:49:42;;;;;;;43.72;16.67;;;;;;;5.49;100.00;100114.84;12802951;23;20021;-84
2021/12/15 16:55:37;;;;;;;30.15;15.13;;;;;;;5.45;100.00;100115.56;12773029;23;20013;-82
2021/12/15 17:00:42;;;;;;;42.28;17.65;;;;;;;5.50;100.00;100115.66;12699739;23;20076;-82
2021/12/15 17:05:49;;;;;;;40.65;16.95;;;;;;;5.37;100.00;100120.25;12716515;23;20032;-83
2021/12/15 17:11:10;;;;;;;31.80;15.15;;;;;;;5.45;100.00;100123.53;12740370;23;20105;-83
2021/12/15 17:22:39;;;;;;;33.92;17.48;;;;;;;5.40;100.00;100125.09;12784592;23;20022;-82
2021/12/15 17:28:40;;;;;;;37.90;17.30;;;;;;;5.47;100.00;100132.09;12786698;23;20009;-82
2021/12/15 17:34:08;;;;;;;31.83;14.52;;;;;;;5.48;100.00;100123.03;12764511;23;20031;-82
2021/12/15 17:39:57;;;;;;;33.03;14.23;;;;;;;5.45;100.00;100123.53;12778057;23;20021;-82
2021/12/15 17:45:24;;;;;;;38.88;16.85;;;;;;;5.46;100.00;100125.97;12590179;23;20063;-84
2021/12/15 17:50:55;;;;;;;39.13;17.60;;;;;;;5.46;100.00;100135.81;12614741;23;20009;-86
2021/12/15 17:56:07;;;;;;;44.85;19.98;;;;;;;5.41;100.00;100129.38;12723547;23;20331;-82
2021/12/15 18:01:10;;;;;;;42.63;20.45;;;;;;;5.41;100.00;100128.56;12765281;23;20588;-82
2021/12/15 18:06:22;;;;;;;36.53;19.33;;;;;;;5.42;100.00;100133.63;12767895;23;20446;-83
2021/12/15 18:11:25;;;;;;;33.22;18.45;;;;;;;5.46;100.00;100139.28;12717874;23;20033;-82
2021/12/15 18:16:31;;;;;;;43.55;21.75;;;;;;;5.54;100.00;100143.38;12769184;23;20022;-85
2021/12/15 18:21:43;;;;;;;43.95;21.23;;;;;;;5.54;100.00;100146.06;12717215;23;20093;-83
2021/12/15 18:27:17;;;;;;;50.88;23.25;;;;;;;5.52;100.00;100153.47;12737621;23;20069;-82
2021/12/15 18:32:25;;;;;;;45.90;21.35;;;;;;;5.38;100.00;100151.13;12740695;23;20044;-82
2021/12/15 18:37:30;;;;;;;49.35;21.77;;;;;;;5.35;100.00;100164.94;12763206;23;20037;-81
2021/12/15 18:42:32;;;;;;;43.63;19.80;;;;;;;5.37;100.00;100162.03;12709243;23;20021;-83
2021/12/15 18:47:33;;;;;;;47.03;20.17;;;;;;;5.44;100.00;100170.66;12702444;23;20096;-79
2021/12/15 18:52:35;;;;;;;48.35;21.58;;;;;;;5.51;100.00;100166.00;12707248;23;20036;-82
2021/12/15 18:57:40;;;;;;;48.15;22.67;;;;;;;5.42;100.00;100165.59;12712065;23;20029;-83
2021/12/15 19:02:42;;;;;;;51.28;21.92;;;;;;;5.25;100.00;100169.31;12735260;23;20009;-84
2021/12/15 19:07:43;;;;;;;48.27;22.77;;;;;;;5.25;100.00;100175.44;12750382;23;20017;-84
2021/12/15 19:12:48;;;;;;;49.15;23.70;;;;;;;5.20;100.00;100185.97;12734878;23;20025;-84
2021/12/15 19:17:54;;;;;;;45.88;23.40;;;;;;;5.21;100.00;100190.28;12771329;23;20045;-83
2021/12/15 19:22:57;;;;;;;46.88;22.27;;;;;;;5.16;100.00;100190.19;12767135;23;20005;-82
2021/12/15 19:28:01;;;;;;;36.10;19.42;;;;;;;5.15;100.00;100188.56;12696305;23;20014;-83
2021/12/15 19:33:07;;;;;;;37.55;18.42;;;;;;;5.19;100.00;100195.00;12730696;23;20001;-82
2021/12/15 19:38:07;;;;;;;32.65;17.52;;;;;;;5.17;100.00;100201.63;12736337;23;20019;-87
2021/12/15 19:43:09;;;;;;;33.53;17.73;;;;;;;5.16;100.00;100202.69;12748884;23;20044;-84
2021/12/15 19:48:10;;;;;;;32.90;17.30;;;;;;;5.20;100.00;100198.47;12828285;23;20052;-81
2021/12/15 19:53:20;;;;;;;29.33;16.30;;;;;;;5.24;100.00;100194.31;12824321;23;20016;-83
2021/12/15 19:58:23;;;;;;;30.35;16.08;;;;;;;5.26;100.00;100192.22;12799366;23;20032;-81
2021/12/15 20:03:26;;;;;;;29.73;16.07;;;;;;;5.21;100.00;100192.94;12762980;23;20831;-82
2021/12/15 20:08:28;;;;;;;26.48;14.70;;;;;;;5.15;100.00;100196.56;12799446;23;20024;-80
2021/12/15 20:13:29;;;;;;;38.10;20.05;;;;;;;5.09;100.00;100210.81;12813359;23;20099;-80
2021/12/15 20:18:45;;;;;;;40.42;20.02;;;;;;;5.16;100.00;100216.78;12782327;23;20017;-84
2021/12/15 20:24:20;;;;;;;44.38;22.20;;;;;;;5.17;100.00;100221.06;12802186;23;20056;-87
2021/12/15 20:29:29;;;;;;;44.53;21.92;;;;;;;5.19;100.00;100224.28;12771559;23;20052;-84
2021/12/15 20:35:04;;;;;;;44.95;22.55;;;;;;;5.23;100.00;100228.09;12797751;23;20017;-82
2021/12/15 20:40:09;;;;;;;47.55;23.50;;;;;;;5.23;100.00;100241.41;12837205;23;20009;-88
2021/12/15 20:45:16;;;;;;;44.42;22.55;;;;;;;5.23;100.00;100241.41;12831449;23;20005;-87
2021/12/15 20:50:22;;;;;;;51.45;23.80;;;;;;;5.16;100.00;100240.75;12824212;23;20009;-86
2021/12/15 20:55:29;;;;;;;42.60;20.80;;;;;;;5.16;100.00;100243.41;12830108;23;20024;-84
2021/12/15 21:01:01;;;;;;;41.42;19.65;;;;;;;5.18;100.00;100249.28;12848558;23;20040;-83
2021/12/15 21:06:11;;;;;;;39.47;20.77;;;;;;;5.19;100.00;100250.91;12776418;23;20409;-83
2021/12/15 21:11:35;;;;;;;41.63;20.38;;;;;;;5.27;100.00;100249.72;12769762;23;20024;-84
2021/12/15 21:16:39;;;;;;;44.97;21.47;;;;;;;5.18;100.00;100243.97;12811791;23;20032;-82
2021/12/15 21:21:45;;;;;;;40.33;20.70;;;;;;;5.16;100.00;100242.59;12775557;23;20253;-86
2021/12/15 21:26:48;;;;;;;43.53;21.17;;;;;;;5.26;100.00;100245.44;12786188;23;20105;-86
2021/12/15 21:31:53;;;;;;;44.22;21.65;;;;;;;5.18;100.00;100236.00;12800856;23;20029;-85
2021/12/15 21:36:59;;;;;;;43.50;22.33;;;;;;;5.12;100.00;100229.78;12820341;23;20051;-87
2021/12/15 21:42:09;;;;;;;43.58;21.20;;;;;;;4.97;100.00;100231.34;12821619;23;20010;-86
2021/12/15 21:47:14;;;;;;;41.40;20.75;;;;;;;4.93;100.00;100227.53;12792855;23;20081;-83
2021/12/15 21:52:18;;;;;;;39.63;20.58;;;;;;;4.83;100.00;100225.50;12781371;23;20329;-83
2021/12/15 21:57:25;;;;;;;33.88;18.65;;;;;;;4.83;100.00;100228.16;12754315;23;20021;-83
2021/12/15 22:02:30;;;;;;;37.17;19.23;;;;;;;4.75;100.00;100228.53;12810803;23;20012;-86
2021/12/15 22:07:35;;;;;;;35.90;20.33;;;;;;;4.72;100.00;100229.81;12826389;23;20016;-83
2021/12/15 22:12:38;;;;;;;38.20;19.70;;;;;;;4.72;100.00;100239.66;12824267;23;20020;-83
2021/12/15 22:17:54;;;;;;;33.63;19.70;;;;;;;4.61;100.00;100238.63;12851152;23;20081;-82
2021/12/15 22:22:55;;;;;;;33.25;19.05;;;;;;;4.62;100.00;100240.25;12821290;23;20081;-84
2021/12/15 22:27:56;;;;;;;32.85;19.00;;;;;;;4.56;100.00;100228.69;12796269;23;20054;-81
2021/12/15 22:33:02;;;;;;;32.33;18.23;;;;;;;4.55;100.00;100232.41;12782073;23;20020;-83
2021/12/15 22:38:06;;;;;;;35.55;18.50;;;;;;;4.49;100.00;100227.22;12732240;23;20059;-83
2021/12/15 22:43:12;;;;;;;34.78;19.25;;;;;;;4.40;100.00;100231.28;12784647;23;20038;-82
2021/12/15 22:48:14;;;;;;;34.05;20.25;;;;;;;4.40;100.00;100226.78;12778783;23;20080;-81
2021/12/15 22:53:15;;;;;;;33.90;20.08;;;;;;;4.40;100.00;100224.13;12753164;23;20441;-82
2021/12/15 22:58:16;;;;;;;35.03;19.98;;;;;;;4.33;100.00;100222.63;12782509;23;20029;-82
2021/12/15 23:03:23;;;;;;;36.60;19.90;;;;;;;4.34;100.00;100224.25;12764878;23;20017;-81
2021/12/15 23:08:33;;;;;;;36.20;21.80;;;;;;;4.41;100.00;100214.31;12797449;23;20029;-88
2021/12/15 23:13:39;;;;;;;37.80;21.08;;;;;;;4.31;100.00;100222.06;12801066;23;20009;-82
2021/12/15 23:18:42;;;;;;;34.25;19.55;;;;;;;4.31;100.00;100214.91;12826010;23;20052;-82
2021/12/15 23:23:46;;;;;;;29.98;18.23;;;;;;;4.28;100.00;100216.16;12824540;23;20056;-84
2021/12/15 23:28:54;;;;;;;32.85;18.48;;;;;;;4.23;100.00;100217.91;12769839;23;20028;-80
2021/12/15 23:33:56;;;;;;;33.00;19.15;;;;;;;4.18;100.00;100215.94;12793258;23;20013;-83
2021/12/15 23:39:53;;;;;;;;;;;;;;;4.18;100.00;100220.44;12824297;23;20033;-86
